sensor_id;sensor_type;location;lat;lon;timestamp;P1;durP1;ratioP1;P2;durP2;ratioP2
3487;SDS011;38546;48.170;11.724;2022-12-07T00:01:15;15.57;;;9.80;;
3487;SDS011;38546;48.170;11.724;2022-12-07T00:04:10;16.43;;;9.83;;
3487;SDS011;38546;48.170;11.724;2022-12-07T00:07:02;15.40;;;10.37;;
3487;SDS011;38546;48.170;11.724;2022-12-07T00:09:53;13.90;;;8.43;;
3487;SDS011;38546;48.170;11.724;2022-12-07T00:12:42;15.57;;;7.93;;
3487;SDS011;38546;48.170;11.724;2022-12-07T00:15:33;20.83;;;10.03;;
3487;SDS011;38546;48.170;11.724;2022-12-07T00:18:23;17.30;;;9.50;;
3487;SDS011;38546;48.170;11.724;2022-12-07T00:21:14;14.93;;;8.90;;
3487;SDS011;38546;48.170;11.724;2022-12-07T00:24:19;14.80;;;7.73;;
3487;SDS011;38546;48.170;11.724;2022-12-07T00:27:10;18.20;;;8.80;;
3487;SDS011;38546;48.170;11.724;2022-12-07T00:29:59;14.83;;;8.10;;
3487;SDS011;38546;48.170;11.724;2022-12-07T00:32:49;19.10;;;9.70;;
3487;SDS011;38546;48.170;11.724;2022-12-07T00:35:38;18.87;;;9.40;;
3487;SDS011;38546;48.170;11.724;2022-12-07T00:38:30;18.47;;;9.80;;
3487;SDS011;38546;48.170;11.724;2022-12-07T00:41:22;13.03;;;9.10;;
3487;SDS011;38546;48.170;11.724;2022-12-07T00:44:13;17.67;;;11.00;;
3487;SDS011;38546;48.170;11.724;2022-12-07T00:47:03;17.67;;;9.93;;
3487;SDS011;38546;48.170;11.724;2022-12-07T00:49:52;20.77;;;10.93;;
3487;SDS011;38546;48.170;11.724;2022-12-07T00:52:41;15.40;;;8.40;;
3487;SDS011;38546;48.170;11.724;2022-12-07T00:55:35;15.20;;;9.07;;
3487;SDS011;38546;48.170;11.724;2022-12-07T00:58:25;14.80;;;8.80;;
3487;SDS011;38546;48.170;11.724;2022-12-07T01:01:14;19.17;;;10.07;;
3487;SDS011;38546;48.170;11.724;2022-12-07T01:04:03;19.87;;;10.17;;
3487;SDS011;38546;48.170;11.724;2022-12-07T01:06:53;17.13;;;9.30;;
3487;SDS011;38546;48.170;11.724;2022-12-07T01:09:42;18.73;;;9.83;;
3487;SDS011;38546;48.170;11.724;2022-12-07T01:12:32;14.57;;;9.07;;
3487;SDS011;38546;48.170;11.724;2022-12-07T01:15:21;17.63;;;9.50;;
3487;SDS011;38546;48.170;11.724;2022-12-07T01:18:11;21.17;;;9.50;;
3487;SDS011;38546;48.170;11.724;2022-12-07T01:21:04;16.40;;;10.30;;
3487;SDS011;38546;48.170;11.724;2022-12-07T01:24:09;26.73;;;10.37;;
3487;SDS011;38546;48.170;11.724;2022-12-07T01:27:00;22.07;;;10.83;;
3487;SDS011;38546;48.170;11.724;2022-12-07T01:29:49;19.60;;;10.77;;
3487;SDS011;38546;48.170;11.724;2022-12-07T01:32:40;16.70;;;8.90;;
3487;SDS011;38546;48.170;11.724;2022-12-07T01:35:30;24.40;;;10.93;;
3487;SDS011;38546;48.170;11.724;2022-12-07T01:38:23;19.90;;;10.20;;
3487;SDS011;38546;48.170;11.724;2022-12-07T01:41:12;16.87;;;9.43;;
3487;SDS011;38546;48.170;11.724;2022-12-07T01:44:10;16.67;;;10.40;;
3487;SDS011;38546;48.170;11.724;2022-12-07T01:47:21;15.27;;;9.17;;
3487;SDS011;38546;48.170;11.724;2022-12-07T01:50:10;18.97;;;9.80;;
3487;SDS011;38546;48.170;11.724;2022-12-07T01:53:00;22.00;;;11.53;;
3487;SDS011;38546;48.170;11.724;2022-12-07T01:55:54;15.47;;;9.13;;
3487;SDS011;38546;48.170;11.724;2022-12-07T01:58:45;18.50;;;10.20;;
3487;SDS011;38546;48.170;11.724;2022-12-07T02:01:34;17.90;;;10.00;;
3487;SDS011;38546;48.170;11.724;2022-12-07T02:04:24;22.57;;;11.07;;
3487;SDS011;38546;48.170;11.724;2022-12-07T02:07:13;18.63;;;10.03;;
3487;SDS011;38546;48.170;11.724;2022-12-07T02:13:55;23.07;;;10.70;;
3487;SDS011;38546;48.170;11.724;2022-12-07T02:16:51;18.23;;;11.33;;
3487;SDS011;38546;48.170;11.724;2022-12-07T02:36:37;25.57;;;12.27;;
3487;SDS011;38546;48.170;11.724;2022-12-07T02:39:43;21.03;;;11.17;;
3487;SDS011;38546;48.170;11.724;2022-12-07T02:44:20;20.70;;;10.07;;
3487;SDS011;38546;48.170;11.724;2022-12-07T02:47:14;23.80;;;12.27;;
3487;SDS011;38546;48.170;11.724;2022-12-07T02:50:06;20.47;;;9.90;;
3487;SDS011;38546;48.170;11.724;2022-12-07T02:52:57;21.03;;;10.67;;
3487;SDS011;38546;48.170;11.724;2022-12-07T02:55:46;24.37;;;10.43;;
3487;SDS011;38546;48.170;11.724;2022-12-07T02:58:43;25.50;;;11.20;;
3487;SDS011;38546;48.170;11.724;2022-12-07T03:05:46;22.53;;;12.30;;
3487;SDS011;38546;48.170;11.724;2022-12-07T03:14:57;20.13;;;9.73;;
3487;SDS011;38546;48.170;11.724;2022-12-07T03:17:55;20.37;;;10.13;;
3487;SDS011;38546;48.170;11.724;2022-12-07T03:20:46;16.97;;;9.37;;
3487;SDS011;38546;48.170;11.724;2022-12-07T03:23:40;20.40;;;10.10;;
3487;SDS011;38546;48.170;11.724;2022-12-07T03:26:34;17.83;;;9.97;;
3487;SDS011;38546;48.170;11.724;2022-12-07T03:29:31;22.53;;;9.73;;
3487;SDS011;38546;48.170;11.724;2022-12-07T03:32:30;19.60;;;10.80;;
3487;SDS011;38546;48.170;11.724;2022-12-07T03:35:47;20.70;;;11.60;;
3487;SDS011;38546;48.170;11.724;2022-12-07T03:38:45;23.00;;;12.20;;
3487;SDS011;38546;48.170;11.724;2022-12-07T03:42:00;21.70;;;10.90;;
3487;SDS011;38546;48.170;11.724;2022-12-07T03:44:53;21.90;;;11.00;;
3487;SDS011;38546;48.170;11.724;2022-12-07T03:47:47;15.50;;;9.63;;
3487;SDS011;38546;48.170;11.724;2022-12-07T03:54:28;18.27;;;11.20;;
3487;SDS011;38546;48.170;11.724;2022-12-07T03:57:28;25.30;;;11.77;;
3487;SDS011;38546;48.170;11.724;2022-12-07T04:00:20;18.97;;;11.23;;
3487;SDS011;38546;48.170;11.724;2022-12-07T04:03:10;22.17;;;11.60;;
3487;SDS011;38546;48.170;11.724;2022-12-07T04:06:00;22.40;;;11.30;;
3487;SDS011;38546;48.170;11.724;2022-12-07T04:08:49;24.80;;;11.37;;
3487;SDS011;38546;48.170;11.724;2022-12-07T04:11:39;20.43;;;10.70;;
3487;SDS011;38546;48.170;11.724;2022-12-07T04:14:28;18.87;;;10.20;;
3487;SDS011;38546;48.170;11.724;2022-12-07T04:17:17;26.07;;;12.23;;
3487;SDS011;38546;48.170;11.724;2022-12-07T04:20:07;21.83;;;12.47;;
3487;SDS011;38546;48.170;11.724;2022-12-07T04:22:58;21.47;;;10.80;;
3487;SDS011;38546;48.170;11.724;2022-12-07T04:25:48;21.97;;;11.73;;
3487;SDS011;38546;48.170;11.724;2022-12-07T04:28:37;23.03;;;10.60;;
3487;SDS011;38546;48.170;11.724;2022-12-07T04:31:26;23.87;;;11.10;;
3487;SDS011;38546;48.170;11.724;2022-12-07T04:34:16;21.63;;;11.60;;
3487;SDS011;38546;48.170;11.724;2022-12-07T04:37:07;24.70;;;12.00;;
3487;SDS011;38546;48.170;11.724;2022-12-07T04:39:57;20.33;;;12.10;;
3487;SDS011;38546;48.170;11.724;2022-12-07T04:42:46;29.13;;;12.23;;
3487;SDS011;38546;48.170;11.724;2022-12-07T04:45:35;25.60;;;11.23;;
3487;SDS011;38546;48.170;11.724;2022-12-07T04:48:24;22.97;;;11.53;;
3487;SDS011;38546;48.170;11.724;2022-12-07T04:51:14;24.30;;;11.80;;
3487;SDS011;38546;48.170;11.724;2022-12-07T04:54:07;22.47;;;11.80;;
3487;SDS011;38546;48.170;11.724;2022-12-07T04:56:57;26.10;;;13.13;;
3487;SDS011;38546;48.170;11.724;2022-12-07T04:59:46;21.30;;;12.20;;
3487;SDS011;38546;48.170;11.724;2022-12-07T05:02:35;24.77;;;14.80;;
3487;SDS011;38546;48.170;11.724;2022-12-07T05:05:24;26.77;;;14.60;;
3487;SDS011;38546;48.170;11.724;2022-12-07T05:08:14;25.63;;;13.13;;
3487;SDS011;38546;48.170;11.724;2022-12-07T05:11:04;25.17;;;12.97;;
3487;SDS011;38546;48.170;11.724;2022-12-07T05:13:55;25.47;;;12.70;;
3487;SDS011;38546;48.170;11.724;2022-12-07T05:16:46;28.63;;;13.70;;
3487;SDS011;38546;48.170;11.724;2022-12-07T05:19:37;26.50;;;13.47;;
3487;SDS011;38546;48.170;11.724;2022-12-07T05:22:27;19.60;;;11.97;;
3487;SDS011;38546;48.170;11.724;2022-12-07T05:25:17;27.47;;;14.37;;
3487;SDS011;38546;48.170;11.724;2022-12-07T05:28:06;27.13;;;13.93;;
3487;SDS011;38546;48.170;11.724;2022-12-07T05:30:56;27.60;;;14.33;;
3487;SDS011;38546;48.170;11.724;2022-12-07T05:33:45;30.10;;;14.57;;
3487;SDS011;38546;48.170;11.724;2022-12-07T05:36:35;32.10;;;14.60;;
3487;SDS011;38546;48.170;11.724;2022-12-07T05:39:24;31.97;;;13.87;;
3487;SDS011;38546;48.170;11.724;2022-12-07T05:42:13;29.37;;;14.27;;
3487;SDS011;38546;48.170;11.724;2022-12-07T05:45:05;35.67;;;14.70;;
3487;SDS011;38546;48.170;11.724;2022-12-07T05:47:55;33.47;;;14.57;;
3487;SDS011;38546;48.170;11.724;2022-12-07T05:50:47;29.53;;;13.30;;
3487;SDS011;38546;48.170;11.724;2022-12-07T05:53:37;30.80;;;14.40;;
3487;SDS011;38546;48.170;11.724;2022-12-07T05:56:26;24.90;;;13.03;;
3487;SDS011;38546;48.170;11.724;2022-12-07T05:59:15;31.23;;;13.87;;
3487;SDS011;38546;48.170;11.724;2022-12-07T06:02:12;29.13;;;14.00;;
3487;SDS011;38546;48.170;11.724;2022-12-07T06:05:04;27.50;;;14.37;;
3487;SDS011;38546;48.170;11.724;2022-12-07T06:07:55;29.27;;;14.20;;
3487;SDS011;38546;48.170;11.724;2022-12-07T06:10:44;30.23;;;13.70;;
3487;SDS011;38546;48.170;11.724;2022-12-07T06:13:36;30.57;;;15.57;;
3487;SDS011;38546;48.170;11.724;2022-12-07T06:16:25;34.40;;;14.20;;
3487;SDS011;38546;48.170;11.724;2022-12-07T06:19:14;29.60;;;14.80;;
3487;SDS011;38546;48.170;11.724;2022-12-07T06:22:04;25.70;;;14.33;;
3487;SDS011;38546;48.170;11.724;2022-12-07T06:24:54;28.10;;;13.87;;
3487;SDS011;38546;48.170;11.724;2022-12-07T06:27:43;34.40;;;15.17;;
3487;SDS011;38546;48.170;11.724;2022-12-07T06:30:33;29.47;;;13.97;;
3487;SDS011;38546;48.170;11.724;2022-12-07T06:33:22;31.60;;;15.37;;
3487;SDS011;38546;48.170;11.724;2022-12-07T06:36:11;29.50;;;13.93;;
3487;SDS011;38546;48.170;11.724;2022-12-07T06:39:00;26.90;;;12.70;;
3487;SDS011;38546;48.170;11.724;2022-12-07T06:41:50;24.10;;;13.33;;
3487;SDS011;38546;48.170;11.724;2022-12-07T06:44:41;28.20;;;13.57;;
3487;SDS011;38546;48.170;11.724;2022-12-07T06:47:30;34.80;;;15.43;;
3487;SDS011;38546;48.170;11.724;2022-12-07T06:50:19;28.33;;;14.30;;
3487;SDS011;38546;48.170;11.724;2022-12-07T06:53:09;29.73;;;15.20;;
3487;SDS011;38546;48.170;11.724;2022-12-07T06:55:58;36.07;;;14.40;;
3487;SDS011;38546;48.170;11.724;2022-12-07T06:58:48;26.80;;;13.60;;
3487;SDS011;38546;48.170;11.724;2022-12-07T07:01:38;27.83;;;14.10;;
3487;SDS011;38546;48.170;11.724;2022-12-07T07:04:27;33.47;;;14.97;;
3487;SDS011;38546;48.170;11.724;2022-12-07T07:07:17;28.53;;;14.10;;
3487;SDS011;38546;48.170;11.724;2022-12-07T07:10:06;24.57;;;12.87;;
3487;SDS011;38546;48.170;11.724;2022-12-07T07:12:56;34.57;;;14.83;;
3487;SDS011;38546;48.170;11.724;2022-12-07T07:15:46;27.70;;;13.27;;
3487;SDS011;38546;48.170;11.724;2022-12-07T07:18:35;32.63;;;14.50;;
3487;SDS011;38546;48.170;11.724;2022-12-07T07:21:24;29.87;;;13.97;;
3487;SDS011;38546;48.170;11.724;2022-12-07T07:24:14;28.73;;;14.10;;
3487;SDS011;38546;48.170;11.724;2022-12-07T07:27:03;30.00;;;15.30;;
3487;SDS011;38546;48.170;11.724;2022-12-07T07:29:52;27.30;;;13.13;;
3487;SDS011;38546;48.170;11.724;2022-12-07T07:32:42;27.37;;;14.00;;
3487;SDS011;38546;48.170;11.724;2022-12-07T07:35:31;28.67;;;14.17;;
3487;SDS011;38546;48.170;11.724;2022-12-07T07:38:22;29.00;;;14.23;;
3487;SDS011;38546;48.170;11.724;2022-12-07T07:41:12;24.83;;;12.57;;
3487;SDS011;38546;48.170;11.724;2022-12-07T07:44:01;26.53;;;14.20;;
3487;SDS011;38546;48.170;11.724;2022-12-07T07:46:50;25.47;;;13.40;;
3487;SDS011;38546;48.170;11.724;2022-12-07T07:49:39;29.10;;;14.17;;
3487;SDS011;38546;48.170;11.724;2022-12-07T07:52:28;28.77;;;14.70;;
3487;SDS011;38546;48.170;11.724;2022-12-07T07:55:19;24.87;;;12.77;;
3487;SDS011;38546;48.170;11.724;2022-12-07T07:58:08;29.30;;;14.37;;
3487;SDS011;38546;48.170;11.724;2022-12-07T08:00:56;26.90;;;14.47;;
3487;SDS011;38546;48.170;11.724;2022-12-07T08:03:51;24.70;;;14.27;;
3487;SDS011;38546;48.170;11.724;2022-12-07T08:06:41;24.47;;;13.70;;
3487;SDS011;38546;48.170;11.724;2022-12-07T08:09:31;24.17;;;13.53;;
3487;SDS011;38546;48.170;11.724;2022-12-07T08:12:21;30.67;;;14.07;;
3487;SDS011;38546;48.170;11.724;2022-12-07T08:15:10;25.73;;;13.33;;
3487;SDS011;38546;48.170;11.724;2022-12-07T08:17:59;28.87;;;13.27;;
3487;SDS011;38546;48.170;11.724;2022-12-07T08:20:49;21.00;;;11.00;;
3487;SDS011;38546;48.170;11.724;2022-12-07T08:23:38;22.43;;;11.90;;
3487;SDS011;38546;48.170;11.724;2022-12-07T08:26:28;20.67;;;13.43;;
3487;SDS011;38546;48.170;11.724;2022-12-07T08:29:18;23.53;;;11.30;;
3487;SDS011;38546;48.170;11.724;2022-12-07T08:32:07;20.80;;;10.33;;
3487;SDS011;38546;48.170;11.724;2022-12-07T08:34:57;28.60;;;12.70;;
3487;SDS011;38546;48.170;11.724;2022-12-07T08:37:47;18.97;;;11.20;;
3487;SDS011;38546;48.170;11.724;2022-12-07T08:40:37;19.67;;;11.13;;
3487;SDS011;38546;48.170;11.724;2022-12-07T08:43:27;23.23;;;12.43;;
3487;SDS011;38546;48.170;11.724;2022-12-07T08:46:21;26.63;;;12.43;;
3487;SDS011;38546;48.170;11.724;2022-12-07T08:49:27;24.30;;;12.40;;
3487;SDS011;38546;48.170;11.724;2022-12-07T08:52:30;22.20;;;12.07;;
3487;SDS011;38546;48.170;11.724;2022-12-07T08:55:20;30.63;;;12.30;;
3487;SDS011;38546;48.170;11.724;2022-12-07T08:58:10;27.27;;;13.17;;
3487;SDS011;38546;48.170;11.724;2022-12-07T09:00:59;26.90;;;13.83;;
3487;SDS011;38546;48.170;11.724;2022-12-07T09:03:48;22.43;;;11.90;;
3487;SDS011;38546;48.170;11.724;2022-12-07T09:06:38;22.23;;;12.30;;
3487;SDS011;38546;48.170;11.724;2022-12-07T09:09:28;29.27;;;13.33;;
3487;SDS011;38546;48.170;11.724;2022-12-07T09:12:19;28.27;;;12.27;;
3487;SDS011;38546;48.170;11.724;2022-12-07T09:15:09;28.00;;;11.40;;
3487;SDS011;38546;48.170;11.724;2022-12-07T09:17:58;24.97;;;13.53;;
3487;SDS011;38546;48.170;11.724;2022-12-07T09:20:48;23.47;;;11.60;;
3487;SDS011;38546;48.170;11.724;2022-12-07T09:23:37;25.80;;;12.93;;
3487;SDS011;38546;48.170;11.724;2022-12-07T09:26:26;28.67;;;12.87;;
3487;SDS011;38546;48.170;11.724;2022-12-07T09:29:17;25.83;;;12.60;;
3487;SDS011;38546;48.170;11.724;2022-12-07T09:32:06;20.63;;;11.07;;
3487;SDS011;38546;48.170;11.724;2022-12-07T09:34:55;18.90;;;9.23;;
3487;SDS011;38546;48.170;11.724;2022-12-07T09:37:45;19.90;;;10.47;;
3487;SDS011;38546;48.170;11.724;2022-12-07T09:40:37;25.30;;;10.23;;
3487;SDS011;38546;48.170;11.724;2022-12-07T09:43:28;23.80;;;11.87;;
3487;SDS011;38546;48.170;11.724;2022-12-07T09:46:18;30.60;;;13.60;;
3487;SDS011;38546;48.170;11.724;2022-12-07T09:49:10;24.80;;;11.80;;
3487;SDS011;38546;48.170;11.724;2022-12-07T09:52:19;24.40;;;11.90;;
3487;SDS011;38546;48.170;11.724;2022-12-07T09:55:18;25.47;;;12.23;;
3487;SDS011;38546;48.170;11.724;2022-12-07T09:58:28;19.43;;;11.50;;
3487;SDS011;38546;48.170;11.724;2022-12-07T10:01:20;23.77;;;11.60;;
3487;SDS011;38546;48.170;11.724;2022-12-07T10:04:17;21.57;;;10.63;;
3487;SDS011;38546;48.170;11.724;2022-12-07T10:07:11;17.83;;;8.83;;
3487;SDS011;38546;48.170;11.724;2022-12-07T10:10:02;23.73;;;10.40;;
3487;SDS011;38546;48.170;11.724;2022-12-07T10:12:57;19.10;;;10.60;;
3487;SDS011;38546;48.170;11.724;2022-12-07T10:15:56;20.37;;;10.37;;
3487;SDS011;38546;48.170;11.724;2022-12-07T10:18:46;19.27;;;10.87;;
3487;SDS011;38546;48.170;11.724;2022-12-07T10:21:35;18.97;;;9.37;;
3487;SDS011;38546;48.170;11.724;2022-12-07T10:24:25;16.57;;;9.13;;
3487;SDS011;38546;48.170;11.724;2022-12-07T10:27:21;22.80;;;10.20;;
3487;SDS011;38546;48.170;11.724;2022-12-07T10:30:20;22.37;;;10.23;;
3487;SDS011;38546;48.170;11.724;2022-12-07T10:33:27;19.33;;;9.80;;
3487;SDS011;38546;48.170;11.724;2022-12-07T10:39:31;20.00;;;9.93;;
3487;SDS011;38546;48.170;11.724;2022-12-07T10:42:34;18.10;;;9.57;;
3487;SDS011;38546;48.170;11.724;2022-12-07T10:45:24;22.23;;;12.40;;
3487;SDS011;38546;48.170;11.724;2022-12-07T10:48:26;18.27;;;10.10;;
3487;SDS011;38546;48.170;11.724;2022-12-07T10:58:14;11.73;;;6.73;;
3487;SDS011;38546;48.170;11.724;2022-12-07T11:01:50;15.60;;;7.87;;
3487;SDS011;38546;48.170;11.724;2022-12-07T11:05:29;10.70;;;6.67;;
3487;SDS011;38546;48.170;11.724;2022-12-07T11:09:01;10.30;;;6.20;;
3487;SDS011;38546;48.170;11.724;2022-12-07T11:12:34;10.07;;;6.20;;
3487;SDS011;38546;48.170;11.724;2022-12-07T11:28:26;9.80;;;4.97;;
3487;SDS011;38546;48.170;11.724;2022-12-07T11:35:24;9.30;;;5.83;;
3487;SDS011;38546;48.170;11.724;2022-12-07T11:38:53;9.73;;;6.20;;
3487;SDS011;38546;48.170;11.724;2022-12-07T11:41:49;9.60;;;5.60;;
3487;SDS011;38546;48.170;11.724;2022-12-07T11:45:15;8.57;;;5.40;;
3487;SDS011;38546;48.170;11.724;2022-12-07T11:48:24;9.03;;;6.20;;
3487;SDS011;38546;48.170;11.724;2022-12-07T11:51:23;7.47;;;6.10;;
3487;SDS011;38546;48.170;11.724;2022-12-07T11:54:16;9.00;;;5.00;;
3487;SDS011;38546;48.170;11.724;2022-12-07T11:57:17;10.87;;;5.97;;
3487;SDS011;38546;48.170;11.724;2022-12-07T12:00:31;12.07;;;6.27;;
3487;SDS011;38546;48.170;11.724;2022-12-07T12:03:28;11.87;;;5.60;;
3487;SDS011;38546;48.170;11.724;2022-12-07T12:06:22;10.33;;;5.80;;
3487;SDS011;38546;48.170;11.724;2022-12-07T12:19:21;9.47;;;5.30;;
3487;SDS011;38546;48.170;11.724;2022-12-07T12:22:39;7.87;;;5.40;;
3487;SDS011;38546;48.170;11.724;2022-12-07T12:25:38;10.57;;;5.80;;
3487;SDS011;38546;48.170;11.724;2022-12-07T12:28:38;13.20;;;6.47;;
3487;SDS011;38546;48.170;11.724;2022-12-07T12:31:39;11.97;;;7.00;;
3487;SDS011;38546;48.170;11.724;2022-12-07T12:38:47;9.77;;;5.73;;
3487;SDS011;38546;48.170;11.724;2022-12-07T12:42:20;11.00;;;5.40;;
3487;SDS011;38546;48.170;11.724;2022-12-07T12:45:18;10.20;;;6.90;;
3487;SDS011;38546;48.170;11.724;2022-12-07T12:48:35;8.60;;;5.93;;
3487;SDS011;38546;48.170;11.724;2022-12-07T12:51:39;11.10;;;5.53;;
3487;SDS011;38546;48.170;11.724;2022-12-07T12:54:31;10.63;;;5.77;;
3487;SDS011;38546;48.170;11.724;2022-12-07T12:57:28;18.33;;;6.27;;
3487;SDS011;38546;48.170;11.724;2022-12-07T13:00:21;7.53;;;5.40;;
3487;SDS011;38546;48.170;11.724;2022-12-07T13:03:27;8.63;;;5.80;;
3487;SDS011;38546;48.170;11.724;2022-12-07T13:09:42;8.83;;;6.17;;
3487;SDS011;38546;48.170;11.724;2022-12-07T13:12:34;11.10;;;5.53;;
3487;SDS011;38546;48.170;11.724;2022-12-07T13:15:36;11.70;;;6.20;;
3487;SDS011;38546;48.170;11.724;2022-12-07T13:18:41;8.93;;;6.20;;
3487;SDS011;38546;48.170;11.724;2022-12-07T13:24:39;17.37;;;6.80;;
3487;SDS011;38546;48.170;11.724;2022-12-07T13:27:29;13.10;;;5.70;;
3487;SDS011;38546;48.170;11.724;2022-12-07T13:30:20;11.63;;;6.63;;
3487;SDS011;38546;48.170;11.724;2022-12-07T13:33:10;10.00;;;6.27;;
3487;SDS011;38546;48.170;11.724;2022-12-07T13:36:01;11.30;;;6.57;;
3487;SDS011;38546;48.170;11.724;2022-12-07T13:43:15;12.20;;;6.43;;
3487;SDS011;38546;48.170;11.724;2022-12-07T13:46:06;13.93;;;7.27;;
3487;SDS011;38546;48.170;11.724;2022-12-07T13:48:58;10.40;;;6.33;;
3487;SDS011;38546;48.170;11.724;2022-12-07T13:51:47;11.97;;;6.70;;
3487;SDS011;38546;48.170;11.724;2022-12-07T13:54:43;12.40;;;6.10;;
3487;SDS011;38546;48.170;11.724;2022-12-07T13:58:03;11.80;;;6.50;;
3487;SDS011;38546;48.170;11.724;2022-12-07T14:00:52;10.10;;;6.43;;
3487;SDS011;38546;48.170;11.724;2022-12-07T14:03:42;11.20;;;6.10;;
3487;SDS011;38546;48.170;11.724;2022-12-07T14:06:31;13.40;;;6.70;;
3487;SDS011;38546;48.170;11.724;2022-12-07T14:09:25;11.70;;;7.50;;
3487;SDS011;38546;48.170;11.724;2022-12-07T14:12:15;14.87;;;7.23;;
3487;SDS011;38546;48.170;11.724;2022-12-07T14:15:15;15.10;;;7.47;;
3487;SDS011;38546;48.170;11.724;2022-12-07T14:18:24;14.00;;;8.27;;
3487;SDS011;38546;48.170;11.724;2022-12-07T14:21:25;20.93;;;10.80;;
3487;SDS011;38546;48.170;11.724;2022-12-07T14:24:19;16.53;;;9.87;;
3487;SDS011;38546;48.170;11.724;2022-12-07T14:27:22;15.50;;;7.90;;
3487;SDS011;38546;48.170;11.724;2022-12-07T14:30:15;12.37;;;7.63;;
3487;SDS011;38546;48.170;11.724;2022-12-07T14:33:07;15.10;;;8.27;;
3487;SDS011;38546;48.170;11.724;2022-12-07T14:35:57;14.63;;;7.40;;
3487;SDS011;38546;48.170;11.724;2022-12-07T14:38:48;18.20;;;7.97;;
3487;SDS011;38546;48.170;11.724;2022-12-07T14:41:37;12.63;;;7.10;;
3487;SDS011;38546;48.170;11.724;2022-12-07T14:44:39;14.80;;;7.60;;
3487;SDS011;38546;48.170;11.724;2022-12-07T14:47:28;14.10;;;7.60;;
3487;SDS011;38546;48.170;11.724;2022-12-07T14:50:18;16.30;;;8.00;;
3487;SDS011;38546;48.170;11.724;2022-12-07T14:53:11;19.60;;;8.90;;
3487;SDS011;38546;48.170;11.724;2022-12-07T14:56:04;17.00;;;8.07;;
3487;SDS011;38546;48.170;11.724;2022-12-07T14:58:54;18.80;;;8.63;;
3487;SDS011;38546;48.170;11.724;2022-12-07T15:01:44;14.60;;;7.50;;
3487;SDS011;38546;48.170;11.724;2022-12-07T15:04:34;12.57;;;6.80;;
3487;SDS011;38546;48.170;11.724;2022-12-07T15:07:23;12.67;;;6.50;;
3487;SDS011;38546;48.170;11.724;2022-12-07T15:10:16;11.53;;;6.23;;
3487;SDS011;38546;48.170;11.724;2022-12-07T15:13:18;12.80;;;6.00;;
3487;SDS011;38546;48.170;11.724;2022-12-07T15:16:27;11.47;;;7.07;;
3487;SDS011;38546;48.170;11.724;2022-12-07T15:19:17;13.10;;;6.50;;
3487;SDS011;38546;48.170;11.724;2022-12-07T15:22:14;14.37;;;6.90;;
3487;SDS011;38546;48.170;11.724;2022-12-07T15:25:04;11.70;;;6.63;;
3487;SDS011;38546;48.170;11.724;2022-12-07T15:27:54;13.17;;;6.73;;
3487;SDS011;38546;48.170;11.724;2022-12-07T15:30:43;14.40;;;7.23;;
3487;SDS011;38546;48.170;11.724;2022-12-07T15:33:33;38.27;;;8.60;;
3487;SDS011;38546;48.170;11.724;2022-12-07T15:36:23;10.43;;;5.57;;
3487;SDS011;38546;48.170;11.724;2022-12-07T15:39:15;13.20;;;6.73;;
3487;SDS011;38546;48.170;11.724;2022-12-07T15:42:04;11.40;;;6.33;;
3487;SDS011;38546;48.170;11.724;2022-12-07T15:44:54;12.40;;;5.63;;
3487;SDS011;38546;48.170;11.724;2022-12-07T15:47:52;11.10;;;6.10;;
3487;SDS011;38546;48.170;11.724;2022-12-07T15:50:43;11.00;;;6.20;;
3487;SDS011;38546;48.170;11.724;2022-12-07T15:53:33;11.07;;;6.37;;
3487;SDS011;38546;48.170;11.724;2022-12-07T15:56:23;10.37;;;6.00;;
3487;SDS011;38546;48.170;11.724;2022-12-07T15:59:13;8.80;;;5.50;;
3487;SDS011;38546;48.170;11.724;2022-12-07T16:02:02;12.80;;;6.50;;
3487;SDS011;38546;48.170;11.724;2022-12-07T16:04:51;12.43;;;5.93;;
3487;SDS011;38546;48.170;11.724;2022-12-07T16:07:41;14.50;;;8.77;;
3487;SDS011;38546;48.170;11.724;2022-12-07T16:10:30;9.07;;;5.90;;
3487;SDS011;38546;48.170;11.724;2022-12-07T16:13:20;11.10;;;6.53;;
3487;SDS011;38546;48.170;11.724;2022-12-07T16:16:10;10.87;;;6.20;;
3487;SDS011;38546;48.170;11.724;2022-12-07T16:19:02;11.53;;;6.50;;
3487;SDS011;38546;48.170;11.724;2022-12-07T16:21:51;11.53;;;6.23;;
3487;SDS011;38546;48.170;11.724;2022-12-07T16:24:40;11.40;;;6.73;;
3487;SDS011;38546;48.170;11.724;2022-12-07T16:27:29;10.10;;;6.27;;
3487;SDS011;38546;48.170;11.724;2022-12-07T16:30:19;16.77;;;8.27;;
3487;SDS011;38546;48.170;11.724;2022-12-07T16:33:08;11.93;;;7.13;;
3487;SDS011;38546;48.170;11.724;2022-12-07T16:35:58;10.33;;;6.00;;
3487;SDS011;38546;48.170;11.724;2022-12-07T16:38:48;12.77;;;7.10;;
3487;SDS011;38546;48.170;11.724;2022-12-07T16:41:37;17.57;;;8.80;;
3487;SDS011;38546;48.170;11.724;2022-12-07T16:44:26;18.50;;;8.90;;
3487;SDS011;38546;48.170;11.724;2022-12-07T16:47:16;20.63;;;9.10;;
3487;SDS011;38546;48.170;11.724;2022-12-07T16:50:06;18.57;;;8.40;;
3487;SDS011;38546;48.170;11.724;2022-12-07T16:52:56;14.13;;;8.53;;
3487;SDS011;38546;48.170;11.724;2022-12-07T16:55:45;15.57;;;8.87;;
3487;SDS011;38546;48.170;11.724;2022-12-07T16:58:35;15.53;;;8.43;;
3487;SDS011;38546;48.170;11.724;2022-12-07T17:01:25;15.30;;;8.53;;
3487;SDS011;38546;48.170;11.724;2022-12-07T17:04:16;17.13;;;9.30;;
3487;SDS011;38546;48.170;11.724;2022-12-07T17:07:05;16.30;;;8.73;;
3487;SDS011;38546;48.170;11.724;2022-12-07T17:09:56;20.30;;;9.40;;
3487;SDS011;38546;48.170;11.724;2022-12-07T17:12:45;21.63;;;10.20;;
3487;SDS011;38546;48.170;11.724;2022-12-07T17:15:35;16.23;;;9.77;;
3487;SDS011;38546;48.170;11.724;2022-12-07T17:18:26;15.77;;;7.73;;
3487;SDS011;38546;48.170;11.724;2022-12-07T17:21:20;16.30;;;7.50;;
3487;SDS011;38546;48.170;11.724;2022-12-07T17:24:12;20.63;;;9.47;;
3487;SDS011;38546;48.170;11.724;2022-12-07T17:27:03;18.10;;;9.73;;
3487;SDS011;38546;48.170;11.724;2022-12-07T17:29:52;20.60;;;11.67;;
3487;SDS011;38546;48.170;11.724;2022-12-07T17:32:42;28.73;;;13.43;;
3487;SDS011;38546;48.170;11.724;2022-12-07T17:35:32;27.50;;;13.20;;
3487;SDS011;38546;48.170;11.724;2022-12-07T17:38:21;21.90;;;11.90;;
3487;SDS011;38546;48.170;11.724;2022-12-07T17:41:11;23.40;;;10.17;;
3487;SDS011;38546;48.170;11.724;2022-12-07T17:44:22;21.53;;;10.60;;
3487;SDS011;38546;48.170;11.724;2022-12-07T17:47:11;19.70;;;9.90;;
3487;SDS011;38546;48.170;11.724;2022-12-07T17:50:04;18.77;;;9.47;;
3487;SDS011;38546;48.170;11.724;2022-12-07T17:52:55;18.90;;;10.17;;
3487;SDS011;38546;48.170;11.724;2022-12-07T17:55:59;17.70;;;10.47;;
3487;SDS011;38546;48.170;11.724;2022-12-07T17:58:48;22.13;;;10.33;;
3487;SDS011;38546;48.170;11.724;2022-12-07T18:01:37;17.50;;;10.77;;
3487;SDS011;38546;48.170;11.724;2022-12-07T18:04:28;17.90;;;10.07;;
3487;SDS011;38546;48.170;11.724;2022-12-07T18:07:17;25.33;;;11.60;;
3487;SDS011;38546;48.170;11.724;2022-12-07T18:10:07;20.77;;;11.60;;
3487;SDS011;38546;48.170;11.724;2022-12-07T18:12:59;27.40;;;13.20;;
3487;SDS011;38546;48.170;11.724;2022-12-07T18:16:16;28.00;;;13.40;;
3487;SDS011;38546;48.170;11.724;2022-12-07T18:19:12;23.37;;;12.77;;
3487;SDS011;38546;48.170;11.724;2022-12-07T18:22:03;25.23;;;12.80;;
3487;SDS011;38546;48.170;11.724;2022-12-07T18:24:52;23.77;;;13.00;;
3487;SDS011;38546;48.170;11.724;2022-12-07T18:27:42;30.90;;;16.70;;
3487;SDS011;38546;48.170;11.724;2022-12-07T18:30:31;42.27;;;17.13;;